Time;durP1;ratioP1;P1;durP2;ratioP2;P2;SDS_P1;SDS_P2;PMS_P1;PMS_P2;Temp;Humidity;BMP_temperature;BMP_pressure;BME280_temperature;BME280_humidity;BME280_pressure;Samples;Min_cycle;Max_cycle;Signal;HPM_P1;HPM_P2
2024/02/03 00:00:08;;;;;;;9.25;5.40;;;8.90;99.90;;;;;;4924095;28;21599;-55
2024/02/03 00:02:34;;;;;;;10.40;6.03;;;8.90;99.90;;;;;;4940381;28;20014;-55
2024/02/03 00:05:00;;;;;;;10.50;5.85;;;8.80;99.90;;;;;;4923154;28;20598;-55
2024/02/03 00:07:26;;;;;;;8.70;5.07;;;8.80;99.90;;;;;;4919785;28;20030;-52
2024/02/03 00:09:52;;;;;;;12.02;6.07;;;8.70;99.90;;;;;;4882879;28;20034;-54
2024/02/03 00:12:26;;;;;;;12.25;6.05;;;8.70;99.90;;;;;;4889210;28;20212;-55
2024/02/03 00:14:52;;;;;;;10.52;5.22;;;8.70;99.90;;;;;;4912112;28;20561;-54
2024/02/03 00:17:17;;;;;;;10.23;6.57;;;8.60;99.90;;;;;;4973848;28;20573;-55
2024/02/03 00:19:43;;;;;;;11.18;6.53;;;8.70;99.90;;;;;;4919537;28;20117;-57
2024/02/03 00:22:10;;;;;;;11.65;6.85;;;8.60;99.90;;;;;;4909917;28;20030;-56
2024/02/03 00:24:36;;;;;;;9.90;6.18;;;8.60;99.90;;;;;;4915001;28;20069;-60
2024/02/03 00:27:02;;;;;;;7.93;6.03;;;8.60;99.90;;;;;;4908574;28;21770;-54
2024/02/03 00:29:28;;;;;;;10.13;5.47;;;8.60;99.90;;;;;;4949390;28;20575;-53
2024/02/03 00:31:54;;;;;;;8.27;5.78;;;8.60;99.90;;;;;;4914816;28;20046;-54
2024/02/03 00:34:19;;;;;;;10.18;6.65;;;8.60;99.90;;;;;;4901593;28;20038;-53
2024/02/03 00:36:45;;;;;;;10.80;5.57;;;8.60;99.90;;;;;;4896748;28;20986;-55
2024/02/03 00:39:11;;;;;;;8.18;5.97;;;8.60;99.90;;;;;;4903594;28;20968;-56
2024/02/03 00:41:36;;;;;;;6.68;5.55;;;8.60;99.90;;;;;;4964710;28;20045;-55
2024/02/03 00:44:02;;;;;;;7.68;5.18;;;8.60;99.90;;;;;;4910370;28;20104;-52
2024/02/03 00:46:28;;;;;;;6.78;5.35;;;8.60;99.90;;;;;;4916574;28;20119;-53
2024/02/03 00:48:53;;;;;;;9.93;5.28;;;8.60;99.90;;;;;;4888216;28;21290;-58
2024/02/03 00:51:19;;;;;;;9.45;6.05;;;8.60;99.90;;;;;;4919072;28;20256;-55
2024/02/03 00:53:45;;;;;;;9.75;5.15;;;8.60;99.90;;;;;;4948969;28;20023;-61
2024/02/03 00:56:10;;;;;;;8.80;6.65;;;8.60;99.90;;;;;;4938533;28;20088;-56
2024/02/03 00:58:36;;;;;;;9.93;6.18;;;8.60;99.90;;;;;;4903279;28;20057;-53
2024/02/03 01:01:02;;;;;;;8.07;5.72;;;8.60;99.90;;;;;;4910998;28;20041;-57
2024/02/03 01:03:27;;;;;;;8.23;6.00;;;8.60;99.90;;;;;;4892638;28;20056;-54
2024/02/03 01:05:53;;;;;;;7.55;5.22;;;8.60;99.90;;;;;;4906400;28;20659;-55
2024/02/03 01:08:19;;;;;;;10.85;5.03;;;8.60;99.90;;;;;;4962176;28;20521;-52
2024/02/03 01:10:45;;;;;;;11.75;6.25;;;8.70;99.90;;;;;;4920965;22;20045;-62
2024/02/03 01:13:11;;;;;;;9.13;6.20;;;8.70;99.90;;;;;;4911150;28;20022;-64
2024/02/03 01:15:37;;;;;;;10.05;6.15;;;8.70;99.90;;;;;;4920141;28;20053;-63
2024/02/03 01:18:05;;;;;;;9.63;5.72;;;8.70;99.90;;;;;;4928309;28;20336;-64
2024/02/03 01:20:32;;;;;;;8.50;5.03;;;8.70;99.90;;;;;;4968716;28;20482;-63
2024/02/03 01:22:58;;;;;;;6.50;4.93;;;8.70;99.90;;;;;;4907422;28;20046;-64
2024/02/03 01:25:23;;;;;;;8.63;5.05;;;8.70;99.90;;;;;;4932674;28;20440;-63
2024/02/03 01:27:49;;;;;;;10.57;5.43;;;8.70;99.90;;;;;;4907763;28;20030;-63
2024/02/03 01:30:15;;;;;;;7.63;5.43;;;8.70;99.90;;;;;;4935575;28;20049;-65
2024/02/03 01:32:40;;;;;;;9.82;5.63;;;8.70;99.90;;;;;;4960174;28;20025;-66
2024/02/03 01:35:06;;;;;;;8.18;5.35;;;8.70;99.90;;;;;;4917168;28;20060;-65
2024/02/03 01:37:32;;;;;;;6.55;5.28;;;8.70;99.90;;;;;;4903596;28;20530;-64
2024/02/03 01:39:57;;;;;;;11.77;5.53;;;8.80;99.90;;;;;;4824813;28;21596;-65
2024/02/03 01:42:23;;;;;;;8.25;5.45;;;8.70;99.90;;;;;;4923575;28;20072;-64
2024/02/03 01:44:49;;;;;;;10.07;6.15;;;8.80;99.90;;;;;;4949090;28;20026;-65
2024/02/03 01:47:15;;;;;;;8.18;6.47;;;8.80;99.90;;;;;;4952099;28;21190;-63
2024/02/03 01:49:41;;;;;;;8.18;6.10;;;8.80;99.90;;;;;;4933156;28;20026;-63
2024/02/03 01:52:08;;;;;;;8.48;6.40;;;8.80;99.90;;;;;;4914100;28;20029;-63
2024/02/03 01:54:35;;;;;;;12.88;7.43;;;8.80;99.90;;;;;;4932477;28;20614;-63
2024/02/03 01:57:02;;;;;;;12.75;7.45;;;8.80;99.90;;;;;;4927045;28;20018;-64
2024/02/03 01:59:32;;;;;;;14.50;7.40;;;8.80;99.90;;;;;;4944390;28;20380;-62
2024/02/03 02:02:00;;;;;;;9.77;7.15;;;8.80;99.90;;;;;;4911530;28;20085;-64
2024/02/03 02:04:26;;;;;;;14.43;7.60;;;8.80;99.90;;;;;;4918677;28;20539;-62
2024/02/03 02:06:52;;;;;;;10.20;6.32;;;8.80;99.90;;;;;;4899865;28;20513;-64
2024/02/03 02:09:21;;;;;;;12.55;6.82;;;8.80;99.90;;;;;;4941736;28;20108;-66
2024/02/03 02:11:47;;;;;;;12.20;6.35;;;8.80;99.90;;;;;;4951446;28;20241;-65
2024/02/03 02:14:13;;;;;;;11.95;5.72;;;8.80;99.90;;;;;;4963775;28;20027;-63
2024/02/03 02:16:39;;;;;;;13.30;6.57;;;8.80;99.90;;;;;;4905889;28;20025;-62
2024/02/03 02:19:07;;;;;;;7.75;5.75;;;8.90;99.90;;;;;;4904677;28;20143;-63
2024/02/03 02:21:33;;;;;;;10.85;5.68;;;8.80;99.90;;;;;;4932326;28;20403;-63
2024/02/03 02:23:58;;;;;;;14.43;6.47;;;8.90;99.90;;;;;;4896216;28;20033;-63
2024/02/03 02:26:24;;;;;;;12.95;5.65;;;8.80;99.90;;;;;;4968047;28;20030;-63
2024/02/03 02:28:51;;;;;;;9.75;5.57;;;8.80;99.90;;;;;;4906873;28;20037;-63
2024/02/03 02:31:17;;;;;;;10.18;5.32;;;8.80;99.90;;;;;;4902899;28;20065;-64
2024/02/03 02:33:42;;;;;;;16.42;5.72;;;8.80;99.90;;;;;;4908366;28;20387;-64
2024/02/03 02:36:08;;;;;;;10.50;4.97;;;8.80;99.90;;;;;;4937289;28;21463;-61
2024/02/03 02:38:34;;;;;;;10.85;5.53;;;8.80;99.90;;;;;;4981160;28;20072;-62
2024/02/03 02:40:59;;;;;;;8.57;4.40;;;8.80;99.90;;;;;;4902027;28;20495;-63
2024/02/03 02:43:25;;;;;;;16.55;5.28;;;8.80;99.90;;;;;;4897754;28;20516;-62
2024/02/03 02:45:51;;;;;;;9.77;4.35;;;8.80;99.90;;;;;;4906005;28;20026;-63
2024/02/03 02:48:16;;;;;;;14.23;4.72;;;8.80;99.90;;;;;;4933785;28;20108;-63
2024/02/03 02:50:42;;;;;;;15.45;4.88;;;8.80;99.90;;;;;;4970586;28;20041;-65
2024/02/03 02:53:08;;;;;;;13.07;4.53;;;8.80;99.90;;;;;;4914109;28;20073;-63
2024/02/03 02:55:33;;;;;;;9.88;4.45;;;8.80;99.90;;;;;;4896618;28;20102;-64
2024/02/03 02:57:59;;;;;;;10.40;4.47;;;8.80;99.90;;;;;;4892672;28;21615;-63
2024/02/03 03:00:24;;;;;;;11.45;4.40;;;8.80;99.90;;;;;;4932506;28;20564;-63
2024/02/03 03:02:50;;;;;;;11.13;3.75;;;8.80;99.90;;;;;;4921277;28;20018;-66
2024/02/03 03:05:16;;;;;;;8.30;3.55;;;8.80;99.90;;;;;;4936584;28;20037;-62
2024/02/03 03:07:41;;;;;;;11.75;4.45;;;8.80;99.90;;;;;;4892905;28;20022;-63
2024/02/03 03:10:07;;;;;;;11.02;4.00;;;8.80;99.90;;;;;;4893835;28;20088;-63
2024/02/03 03:12:34;;;;;;;9.65;4.22;;;8.80;99.90;;;;;;4934075;28;20026;-62
2024/02/03 03:14:59;;;;;;;11.02;4.32;;;8.80;99.90;;;;;;4955149;28;20096;-63
2024/02/03 03:17:25;;;;;;;9.90;3.75;;;8.80;99.90;;;;;;4958406;28;20027;-62
2024/02/03 03:19:51;;;;;;;7.80;3.50;;;8.80;99.90;;;;;;4945508;28;20030;-64
2024/02/03 03:22:17;;;;;;;5.68;3.65;;;8.80;99.90;;;;;;4944103;28;20519;-63
2024/02/03 03:24:43;;;;;;;12.38;3.95;;;8.80;99.90;;;;;;4941666;28;20615;-63
2024/02/03 03:27:09;;;;;;;8.23;3.65;;;8.80;99.90;;;;;;4995352;28;20060;-63
2024/02/03 03:29:34;;;;;;;12.45;3.97;;;8.80;99.90;;;;;;4957128;28;20068;-63
2024/02/03 03:32:00;;;;;;;13.85;4.10;;;8.80;99.90;;;;;;4946758;28;20038;-62
2024/02/03 03:34:28;;;;;;;10.23;3.38;;;8.80;99.90;;;;;;4944310;28;20037;-63
2024/02/03 03:36:54;;;;;;;5.85;3.63;;;8.70;99.90;;;;;;4965031;28;21779;-63
2024/02/03 03:39:20;;;;;;;12.10;3.67;;;8.70;99.90;;;;;;4986952;28;20487;-63
2024/02/03 03:41:46;;;;;;;8.23;3.40;;;8.70;99.90;;;;;;4981588;28;20407;-63
2024/02/03 03:44:11;;;;;;;10.02;3.50;;;8.70;99.90;;;;;;4954533;28;20034;-62
2024/02/03 03:46:38;;;;;;;10.27;3.88;;;8.70;99.90;;;;;;4950505;28;20082;-62
2024/02/03 03:49:03;;;;;;;7.57;3.83;;;8.70;99.90;;;;;;4943786;28;20034;-62
2024/02/03 03:51:29;;;;;;;9.85;4.70;;;8.70;99.90;;;;;;4982590;28;20034;-62
2024/02/03 03:53:55;;;;;;;9.60;3.55;;;8.70;99.90;;;;;;4960248;28;20053;-62
2024/02/03 03:56:20;;;;;;;10.45;4.70;;;8.70;99.90;;;;;;4949381;28;20514;-64
2024/02/03 03:58:46;;;;;;;12.00;4.32;;;8.70;99.90;;;;;;4968446;28;20033;-64
2024/02/03 04:01:11;;;;;;;14.88;4.13;;;8.70;99.90;;;;;;4947524;28;20117;-63
2024/02/03 04:03:38;;;;;;;13.40;4.15;;;8.80;99.90;;;;;;4955281;28;20073;-64
2024/02/03 04:06:04;;;;;;;9.77;4.28;;;8.80;99.90;;;;;;4964898;28;20042;-63
2024/02/03 04:08:30;;;;;;;12.25;4.13;;;8.80;99.90;;;;;;4966226;28;20494;-62
2024/02/03 04:10:55;;;;;;;13.63;3.95;;;8.70;99.90;;;;;;4933842;28;20057;-62
2024/02/03 04:13:21;;;;;;;15.60;4.13;;;8.70;99.90;;;;;;4960837;28;20064;-63
2024/02/03 04:15:47;;;;;;;13.68;5.50;;;8.80;99.90;;;;;;4952344;28;20023;-63
2024/02/03 04:18:13;;;;;;;10.55;4.05;;;8.70;99.90;;;;;;4981729;28;20021;-63
2024/02/03 04:20:39;;;;;;;9.63;4.57;;;8.70;99.90;;;;;;4954303;28;20132;-63
2024/02/03 04:23:04;;;;;;;10.43;4.40;;;8.80;99.90;;;;;;4942789;28;20557;-62
2024/02/03 04:25:30;;;;;;;14.80;4.45;;;8.70;99.90;;;;;;4925382;28;20039;-62
2024/02/03 04:27:55;;;;;;;7.15;4.18;;;8.80;99.90;;;;;;4959817;28;20034;-63
2024/02/03 04:30:21;;;;;;;11.63;4.10;;;8.80;99.90;;;;;;4974380;28;20026;-62
2024/02/03 04:32:46;;;;;;;12.60;4.55;;;8.80;99.90;;;;;;4972386;28;20577;-62
2024/02/03 04:35:12;;;;;;;13.40;4.38;;;8.80;99.90;;;;;;4943480;28;20035;-64
2024/02/03 04:37:37;;;;;;;11.07;3.58;;;8.80;99.90;;;;;;4929977;28;20398;-62
2024/02/03 04:40:06;;;;;;;9.05;4.05;;;8.80;99.90;;;;;;4942635;28;20034;-62
2024/02/03 04:42:31;;;;;;;12.60;4.25;;;8.80;99.90;;;;;;4986158;28;20042;-62
2024/02/03 04:44:57;;;;;;;11.18;3.83;;;8.80;99.90;;;;;;4952462;28;20113;-69
2024/02/03 04:47:22;;;;;;;7.13;3.30;;;8.80;99.90;;;;;;4947930;28;20112;-63
2024/02/03 04:49:48;;;;;;;10.35;4.40;;;8.80;99.90;;;;;;4937217;28;20040;-63
2024/02/03 04:52:13;;;;;;;16.02;4.90;;;8.80;99.90;;;;;;4942452;28;20112;-62
2024/02/03 04:54:39;;;;;;;12.43;4.13;;;8.80;99.90;;;;;;4975485;28;20034;-65
2024/02/03 04:57:05;;;;;;;14.20;4.22;;;8.80;99.90;;;;;;4970792;28;20034;-62
2024/02/03 04:59:30;;;;;;;12.00;4.32;;;8.80;99.90;;;;;;4950955;28;20534;-60
2024/02/03 05:01:56;;;;;;;12.93;4.07;;;8.80;99.90;;;;;;4950388;28;20026;-62
2024/02/03 05:04:21;;;;;;;13.30;4.00;;;8.80;99.90;;;;;;4947999;28;20486;-62
2024/02/03 05:06:47;;;;;;;12.95;3.88;;;8.80;99.90;;;;;;4935462;28;20902;-62
2024/02/03 05:09:12;;;;;;;10.60;3.67;;;8.80;99.90;;;;;;4988844;28;20026;-63
2024/02/03 05:11:38;;;;;;;8.90;4.18;;;8.80;99.90;;;;;;4953594;28;20026;-63
2024/02/03 05:14:03;;;;;;;14.98;4.80;;;8.80;99.90;;;;;;4947119;28;20029;-63
2024/02/03 05:16:29;;;;;;;8.10;3.20;;;8.80;99.90;;;;;;4942230;28;20026;-62
2024/02/03 05:18:55;;;;;;;9.77;3.63;;;8.80;99.90;;;;;;4915837;28;21634;-62
2024/02/03 05:21:20;;;;;;;10.70;4.40;;;8.80;99.90;;;;;;4964504;28;20036;-63
2024/02/03 05:23:46;;;;;;;8.38;3.55;;;8.90;99.90;;;;;;4947088;28;20431;-64
2024/02/03 05:26:12;;;;;;;9.45;4.07;;;8.90;99.90;;;;;;4922538;28;20544;-62
2024/02/03 05:28:37;;;;;;;8.60;3.45;;;8.90;99.90;;;;;;4941991;28;20518;-63
2024/02/03 05:31:03;;;;;;;8.55;3.90;;;8.90;99.90;;;;;;4962744;28;20096;-64
2024/02/03 05:33:30;;;;;;;12.50;4.57;;;8.90;99.90;;;;;;4977828;28;20061;-64
2024/02/03 05:35:56;;;;;;;10.27;5.15;;;8.90;99.90;;;;;;4941001;28;20030;-67
2024/02/03 05:38:22;;;;;;;16.13;4.47;;;8.90;99.90;;;;;;4951199;28;20544;-64
2024/02/03 05:40:47;;;;;;;10.05;3.55;;;8.90;99.90;;;;;;4919068;28;20026;-64
2024/02/03 05:43:13;;;;;;;10.15;4.63;;;8.90;99.90;;;;;;4945713;28;20601;-65
2024/02/03 05:45:38;;;;;;;8.73;4.13;;;8.90;99.90;;;;;;4942285;28;20138;-65
2024/02/03 05:48:04;;;;;;;13.57;4.13;;;8.90;99.90;;;;;;4964487;28;20038;-63
2024/02/03 05:50:30;;;;;;;13.70;4.60;;;9.00;99.90;;;;;;4941528;28;20029;-63
2024/02/03 05:52:55;;;;;;;15.35;4.10;;;9.00;99.90;;;;;;4917038;28;20049;-63
2024/02/03 05:55:21;;;;;;;8.90;4.03;;;9.00;99.90;;;;;;4911284;28;20088;-63
2024/02/03 05:57:55;;;;;;;13.93;4.30;;;8.90;99.90;;;;;;4909517;28;20038;-65
2024/02/03 06:00:21;;;;;;;12.48;4.38;;;9.00;99.90;;;;;;4967654;28;21442;-60
2024/02/03 06:02:47;;;;;;;12.40;4.00;;;9.00;99.90;;;;;;4943828;28;20026;-62
2024/02/03 06:05:13;;;;;;;9.68;3.85;;;9.00;99.90;;;;;;4928889;28;20030;-62
2024/02/03 06:07:39;;;;;;;6.55;3.05;;;9.00;99.90;;;;;;4914875;28;20029;-62
2024/02/03 06:10:05;;;;;;;15.45;4.60;;;9.10;99.90;;;;;;4903107;28;20068;-62
2024/02/03 06:12:31;;;;;;;9.38;4.00;;;9.10;99.90;;;;;;4998036;28;20030;-61
2024/02/03 06:14:57;;;;;;;12.43;3.63;;;9.10;99.90;;;;;;4950226;28;20379;-65
2024/02/03 06:17:22;;;;;;;10.75;3.95;;;9.10;99.90;;;;;;4937329;28;20916;-64
2024/02/03 06:19:48;;;;;;;13.55;3.88;;;9.10;99.90;;;;;;4916987;28;20517;-63
2024/02/03 06:22:14;;;;;;;9.07;3.17;;;9.10;99.90;;;;;;4919359;28;20280;-63
2024/02/03 06:24:40;;;;;;;12.02;3.83;;;9.10;99.90;;;;;;4931622;28;20028;-65
2024/02/03 06:27:05;;;;;;;16.85;3.63;;;9.10;99.90;;;;;;4952690;28;20034;-62
2024/02/03 06:29:31;;;;;;;8.18;3.72;;;9.10;99.90;;;;;;4933792;28;20030;-62
2024/02/03 06:31:57;;;;;;;13.55;4.03;;;9.10;99.90;;;;;;4915455;28;20053;-62
2024/02/03 06:34:23;;;;;;;8.13;3.50;;;9.10;99.90;;;;;;4947650;28;20033;-61
2024/02/03 06:36:48;;;;;;;8.55;3.30;;;9.10;99.90;;;;;;4946007;28;20133;-64
2024/02/03 06:39:14;;;;;;;10.30;3.58;;;9.20;99.90;;;;;;4974417;28;20121;-62
2024/02/03 06:41:40;;;;;;;8.57;2.92;;;9.20;99.90;;;;;;4951073;28;20030;-61
2024/02/03 06:44:06;;;;;;;13.23;3.50;;;9.20;99.90;;;;;;4923072;28;20022;-62
2024/02/03 06:46:31;;;;;;;8.27;3.08;;;9.20;99.90;;;;;;4913366;28;20026;-61
2024/02/03 06:48:57;;;;;;;9.30;3.40;;;9.10;99.90;;;;;;4933149;28;20379;-61
2024/02/03 06:51:22;;;;;;;8.05;2.33;;;9.20;99.90;;;;;;4985677;28;20081;-60
2024/02/03 06:53:48;;;;;;;10.20;2.72;;;9.20;99.90;;;;;;4951737;28;20525;-62
2024/02/03 06:56:14;;;;;;;8.40;2.85;;;9.20;99.90;;;;;;4945206;28;20023;-61
2024/02/03 06:58:39;;;;;;;11.93;2.90;;;9.10;99.90;;;;;;4943685;28;21346;-62
2024/02/03 07:01:05;;;;;;;10.52;2.30;;;9.20;99.90;;;;;;4948050;28;21661;-63
2024/02/03 07:03:30;;;;;;;8.18;3.35;;;9.20;99.90;;;;;;4961046;28;20053;-59
2024/02/03 07:05:56;;;;;;;7.25;2.78;;;9.20;99.90;;;;;;4938319;28;20035;-64
2024/02/03 07:08:21;;;;;;;10.18;2.88;;;9.20;99.90;;;;;;4945943;28;20030;-62
2024/02/03 07:10:47;;;;;;;9.10;3.63;;;9.20;99.90;;;;;;4933270;28;20037;-61
2024/02/03 07:13:12;;;;;;;9.45;3.25;;;9.20;99.90;;;;;;4923671;28;20030;-61
2024/02/03 07:15:38;;;;;;;9.02;2.92;;;9.20;99.90;;;;;;5000105;28;20033;-61
2024/02/03 07:18:04;;;;;;;14.18;3.75;;;9.10;99.90;;;;;;4922948;28;20026;-61
2024/02/03 07:20:29;;;;;;;10.48;2.80;;;9.10;99.90;;;;;;4942685;28;20029;-61
2024/02/03 07:22:55;;;;;;;8.27;2.40;;;9.20;99.90;;;;;;4939621;28;20034;-61
2024/02/03 07:25:20;;;;;;;7.82;2.97;;;9.20;99.90;;;;;;4947362;28;20414;-62
2024/02/03 07:27:46;;;;;;;12.20;3.67;;;9.20;99.90;;;;;;4956042;28;20034;-63
2024/02/03 07:30:12;;;;;;;8.93;3.42;;;9.20;99.90;;;;;;4957101;28;20502;-61
2024/02/03 07:32:38;;;;;;;11.70;3.85;;;9.20;99.90;;;;;;4938589;28;20030;-61
2024/02/03 07:35:04;;;;;;;8.35;3.45;;;9.20;99.90;;;;;;4929442;28;20049;-61
2024/02/03 07:37:29;;;;;;;11.10;4.15;;;9.20;99.90;;;;;;4939882;28;20490;-61
2024/02/03 07:39:55;;;;;;;14.30;3.78;;;9.20;99.90;;;;;;4914908;28;20089;-60
2024/02/03 07:42:20;;;;;;;13.02;3.85;;;9.20;99.90;;;;;;4966376;28;21379;-62
2024/02/03 07:44:46;;;;;;;8.50;3.25;;;9.20;99.90;;;;;;4933175;28;20109;-61
2024/02/03 07:47:12;;;;;;;10.95;3.05;;;9.20;99.90;;;;;;4939689;28;20037;-61
2024/02/03 07:49:38;;;;;;;15.73;3.85;;;9.20;99.90;;;;;;4931144;28;20042;-61
2024/02/03 07:52:05;;;;;;;11.30;3.80;;;9.20;99.90;;;;;;4948784;28;21497;-62
2024/02/03 07:54:31;;;;;;;19.13;3.95;;;9.20;99.90;;;;;;4959136;28;20125;-60
2024/02/03 07:56:57;;;;;;;10.63;3.15;;;9.20;99.90;;;;;;4936253;28;20018;-60
2024/02/03 07:59:22;;;;;;;11.88;3.45;;;9.20;99.90;;;;;;4935007;28;20026;-59
2024/02/03 08:01:48;;;;;;;12.82;3.63;;;9.20;99.90;;;;;;4871925;28;20029;-58
2024/02/03 08:04:13;;;;;;;11.00;2.92;;;9.20;99.90;;;;;;4936873;28;20018;-60
2024/02/03 08:06:39;;;;;;;7.38;3.22;;;9.20;99.90;;;;;;4965870;28;20030;-59
2024/02/03 08:09:04;;;;;;;16.67;3.08;;;9.20;99.90;;;;;;4942225;28;20030;-61
2024/02/03 08:11:30;;;;;;;13.00;3.75;;;9.20;99.90;;;;;;4931459;28;20030;-60
2024/02/03 08:13:56;;;;;;;6.50;2.65;;;9.30;99.90;;;;;;4911618;28;20458;-61
2024/02/03 08:16:21;;;;;;;11.70;3.65;;;9.30;99.90;;;;;;4888574;28;20065;-62
2024/02/03 08:18:47;;;;;;;12.48;2.88;;;9.20;99.90;;;;;;4931016;28;20137;-63
2024/02/03 08:21:12;;;;;;;10.52;3.05;;;9.20;99.90;;;;;;4970610;28;20030;-60
2024/02/03 08:23:38;;;;;;;7.03;2.85;;;9.20;99.90;;;;;;4931753;28;20169;-60
2024/02/03 08:26:04;;;;;;;10.30;3.47;;;9.20;99.90;;;;;;4914318;28;20320;-62
2024/02/03 08:28:29;;;;;;;13.00;3.58;;;9.20;99.90;;;;;;4942736;28;20158;-62
2024/02/03 08:30:55;;;;;;;10.30;3.50;;;9.20;99.90;;;;;;4904753;28;20037;-62
2024/02/03 08:33:22;;;;;;;8.45;3.70;;;9.20;99.90;;;;;;4976108;28;20034;-62
2024/02/03 08:35:48;;;;;;;10.98;3.65;;;9.20;99.90;;;;;;4921920;28;20032;-61
2024/02/03 08:38:13;;;;;;;11.75;4.50;;;9.20;99.90;;;;;;4915154;28;20019;-61
2024/02/03 08:40:39;;;;;;;10.20;3.40;;;9.20;99.90;;;;;;4899148;28;20018;-61
2024/02/03 08:43:05;;;;;;;9.43;3.08;;;9.20;99.90;;;;;;4937894;28;21884;-60
2024/02/03 08:45:31;;;;;;;15.40;3.47;;;9.20;99.90;;;;;;4980012;28;20478;-60
2024/02/03 08:47:56;;;;;;;14.60;3.53;;;9.20;99.90;;;;;;4932167;28;20103;-64
2024/02/03 08:50:22;;;;;;;14.32;3.95;;;9.20;99.90;;;;;;4936941;28;20030;-60
2024/02/03 08:52:47;;;;;;;15.02;4.32;;;9.30;99.90;;;;;;4905560;28;20287;-62
2024/02/03 08:55:13;;;;;;;12.60;3.22;;;9.30;99.90;;;;;;4940131;28;20730;-63
2024/02/03 08:57:39;;;;;;;7.57;3.97;;;9.30;99.90;;;;;;4957911;28;20031;-62
2024/02/03 09:00:05;;;;;;;14.02;3.17;;;9.30;99.90;;;;;;4909450;28;20562;-60
2024/02/03 09:02:32;;;;;;;13.00;3.88;;;9.30;99.90;;;;;;4912101;28;20033;-62
2024/02/03 09:05:00;;;;;;;13.05;3.28;;;9.30;99.90;;;;;;4909634;28;20423;-61
2024/02/03 09:07:25;;;;;;;13.80;3.15;;;9.30;99.90;;;;;;4928355;28;20259;-62
2024/02/03 09:09:51;;;;;;;13.13;3.58;;;9.30;99.90;;;;;;4920849;28;20053;-63
2024/02/03 09:12:16;;;;;;;17.02;4.25;;;9.30;99.90;;;;;;4932055;28;21933;-62
2024/02/03 09:14:42;;;;;;;11.35;3.67;;;9.40;99.90;;;;;;4935911;28;20395;-61
2024/02/03 09:17:09;;;;;;;10.98;3.97;;;9.40;99.90;;;;;;4879032;28;20039;-61
2024/02/03 09:19:34;;;;;;;7.90;3.20;;;9.40;99.90;;;;;;4927010;28;20396;-63
2024/02/03 09:22:00;;;;;;;12.85;3.63;;;9.40;99.90;;;;;;4911792;28;21724;-61
2024/02/03 09:24:25;;;;;;;12.73;4.20;;;9.40;99.90;;;;;;4962510;28;20029;-62
2024/02/03 09:26:51;;;;;;;16.70;4.10;;;9.40;99.90;;;;;;4943732;28;20033;-60
2024/02/03 09:29:17;;;;;;;13.57;4.00;;;9.50;99.90;;;;;;4933757;28;20037;-61
2024/02/03 09:31:42;;;;;;;9.75;3.10;;;9.50;99.90;;;;;;4927557;28;20504;-61
2024/02/03 09:34:08;;;;;;;10.30;3.78;;;9.50;99.90;;;;;;4950370;28;20038;-62
2024/02/03 09:36:34;;;;;;;14.02;4.72;;;9.50;99.90;;;;;;4948639;28;20026;-62
2024/02/03 09:39:00;;;;;;;14.45;4.13;;;9.50;99.90;;;;;;4909158;28;20096;-62
2024/02/03 09:41:28;;;;;;;11.50;4.03;;;9.50;99.90;;;;;;4929534;28;20134;-61
2024/02/03 09:43:55;;;;;;;12.43;4.00;;;9.40;99.90;;;;;;4924213;28;21758;-60
2024/02/03 09:46:21;;;;;;;11.80;3.80;;;9.40;99.90;;;;;;4934144;28;20671;-60
2024/02/03 09:48:46;;;;;;;14.23;3.70;;;9.40;99.90;;;;;;4939118;28;20026;-63
2024/02/03 09:51:12;;;;;;;11.18;4.53;;;9.40;99.90;;;;;;4947008;28;20030;-61
2024/02/03 09:53:38;;;;;;;11.52;2.70;;;9.40;99.90;;;;;;4925470;28;20026;-61
2024/02/03 09:56:05;;;;;;;14.50;3.65;;;9.40;99.90;;;;;;4883262;28;20068;-62
2024/02/03 09:58:31;;;;;;;14.93;4.78;;;9.40;99.90;;;;;;4942174;28;20340;-59
2024/02/03 10:00:56;;;;;;;14.70;3.60;;;9.40;99.90;;;;;;4821174;28;20045;-62
2024/02/03 10:03:22;;;;;;;14.13;4.70;;;9.50;99.90;;;;;;4968888;28;20030;-60
2024/02/03 10:05:59;;;;;;;14.43;3.60;;;9.50;99.90;;;;;;4908237;28;20036;-61
2024/02/03 10:08:25;;;;;;;9.80;3.92;;;9.50;99.90;;;;;;4909950;28;20030;-61
2024/02/03 10:10:55;;;;;;;8.88;3.53;;;9.50;99.90;;;;;;4884168;28;20067;-61
2024/02/03 10:13:22;;;;;;;14.93;3.75;;;9.50;99.90;;;;;;4939653;28;20034;-58
2024/02/03 10:15:59;;;;;;;10.73;3.20;;;9.50;99.90;;;;;;4946223;28;20051;-63
2024/02/03 10:18:25;;;;;;;12.98;3.42;;;9.50;99.90;;;;;;4967125;28;20033;-61
2024/02/03 10:20:51;;;;;;;18.33;4.13;;;9.50;99.90;;;;;;4904444;28;20022;-61
2024/02/03 10:23:16;;;;;;;10.15;3.65;;;9.50;99.90;;;;;;4906067;28;20049;-61
2024/02/03 10:25:42;;;;;;;11.07;3.92;;;9.50;99.90;;;;;;4901148;28;20030;-62
2024/02/03 10:28:08;;;;;;;11.43;4.30;;;9.50;99.90;;;;;;4936911;28;20123;-62
2024/02/03 10:30:36;;;;;;;9.10;4.50;;;9.50;99.90;;;;;;4963968;28;20036;-61
2024/02/03 10:33:04;;;;;;;9.43;3.90;;;9.50;99.90;;;;;;4897407;28;20030;-60
2024/02/03 10:35:34;;;;;;;12.93;4.90;;;9.50;99.90;;;;;;4894899;28;20030;-61
2024/02/03 10:38:00;;;;;;;13.68;4.00;;;9.50;99.90;;;;;;4913747;28;22544;-61
2024/02/03 10:40:28;;;;;;;8.05;3.60;;;9.50;99.90;;;;;;4931053;28;20030;-61
2024/02/03 10:42:55;;;;;;;11.20;3.15;;;9.50;99.90;;;;;;4911073;28;20708;-63
2024/02/03 10:45:27;;;;;;;12.60;4.10;;;9.60;99.90;;;;;;4972198;28;20498;-62
2024/02/03 10:47:55;;;;;;;8.70;3.08;;;9.60;99.90;;;;;;4896740;28;20038;-63
2024/02/03 10:50:29;;;;;;;9.13;3.47;;;9.60;99.90;;;;;;4892390;28;20034;-62
2024/02/03 10:53:00;;;;;;;9.50;3.30;;;9.60;99.90;;;;;;4893131;28;21462;-62
2024/02/03 10:55:28;;;;;;;12.00;3.67;;;9.60;99.90;;;;;;4937766;28;20161;-62
2024/02/03 10:57:54;;;;;;;11.32;3.15;;;9.60;99.90;;;;;;4913106;28;20514;-64
2024/02/03 11:00:21;;;;;;;11.10;3.78;;;9.60;99.90;;;;;;4951519;28;20112;-59
2024/02/03 11:02:57;;;;;;;11.25;3.72;;;9.60;99.90;;;;;;4951265;28;20688;-61
2024/02/03 11:05:25;;;;;;;10.25;3.67;;;9.70;99.90;;;;;;4947889;28;20085;-60
2024/02/03 11:07:50;;;;;;;7.90;3.67;;;9.60;99.90;;;;;;4948612;28;20032;-61
2024/02/03 11:10:16;;;;;;;10.73;3.45;;;9.60;99.90;;;;;;4991554;28;21642;-62
2024/02/03 11:12:42;;;;;;;13.23;3.60;;;9.70;99.90;;;;;;4952832;28;20041;-62
2024/02/03 11:15:16;;;;;;;14.95;3.65;;;9.60;99.90;;;;;;4972950;28;20064;-60
2024/02/03 11:17:44;;;;;;;10.30;3.40;;;9.60;99.90;;;;;;4942920;28;20030;-60
2024/02/03 11:20:22;;;;;;;9.95;3.22;;;9.60;99.90;;;;;;4937075;28;20674;-61
2024/02/03 11:22:56;;;;;;;10.85;3.85;;;9.60;99.90;;;;;;4950437;28;20093;-62
2024/02/03 11:25:22;;;;;;;8.27;3.20;;;9.70;99.90;;;;;;4985956;28;20025;-62
2024/02/03 11:27:48;;;;;;;12.77;3.60;;;9.70;99.90;;;;;;4962732;28;20429;-61
2024/02/03 11:30:17;;;;;;;19.20;4.35;;;9.70;99.90;;;;;;4956432;28;20044;-62
2024/02/03 11:32:44;;;;;;;9.95;3.97;;;9.70;99.90;;;;;;4966417;28;20030;-62
2024/02/03 11:35:10;;;;;;;8.18;3.35;;;9.70;99.90;;;;;;4967450;28;20029;-61
2024/02/03 11:37:35;;;;;;;9.77;2.90;;;9.80;99.90;;;;;;4990269;28;20018;-64
2024/02/03 11:40:08;;;;;;;10.77;3.88;;;9.90;99.90;;;;;;4951239;28;20049;-63
2024/02/03 11:42:34;;;;;;;14.25;3.70;;;10.00;99.90;;;;;;4949030;28;20509;-63
2024/02/03 11:45:03;;;;;;;9.98;3.50;;;10.00;99.90;;;;;;4958071;28;20060;-61
2024/02/03 11:47:30;;;;;;;15.70;3.65;;;10.10;99.90;;;;;;4933203;28;20116;-61
2024/02/03 11:49:56;;;;;;;10.02;2.95;;;10.20;99.90;;;;;;4948306;28;22350;-61
2024/02/03 11:52:23;;;;;;;9.13;3.05;;;10.20;99.90;;;;;;4995655;28;20174;-61
2024/02/03 11:54:49;;;;;;;9.85;2.83;;;10.10;99.90;;;;;;4954455;28;20036;-62
2024/02/03 11:57:15;;;;;;;14.02;3.33;;;10.10;99.90;;;;;;4956092;28;20022;-62
2024/02/03 11:59:41;;;;;;;13.90;3.55;;;10.10;99.90;;;;;;4952364;28;20029;-61
2024/02/03 12:02:07;;;;;;;15.52;3.25;;;10.00;99.90;;;;;;4947679;28;20030;-61
2024/02/03 12:04:33;;;;;;;8.07;3.20;;;10.00;99.90;;;;;;4988278;28;20466;-62
2024/02/03 12:06:59;;;;;;;9.85;3.08;;;9.90;99.90;;;;;;4968259;28;20518;-62
2024/02/03 12:09:26;;;;;;;10.27;2.92;;;9.90;99.90;;;;;;4944558;28;20014;-61
2024/02/03 12:11:53;;;;;;;10.82;3.28;;;9.80;99.90;;;;;;4961174;28;20567;-61
2024/02/03 12:14:19;;;;;;;14.65;3.60;;;9.80;99.90;;;;;;4963761;28;20045;-62
2024/02/03 12:16:45;;;;;;;13.18;3.70;;;9.90;99.90;;;;;;4970574;28;20026;-65
2024/02/03 12:19:12;;;;;;;8.57;2.70;;;9.80;99.90;;;;;;4999240;28;20034;-61
2024/02/03 12:21:38;;;;;;;13.65;3.78;;;9.80;99.90;;;;;;4942791;28;20034;-61
2024/02/03 12:24:06;;;;;;;13.25;3.28;;;9.80;99.90;;;;;;4965051;28;20454;-62
2024/02/03 12:26:32;;;;;;;9.38;2.95;;;9.80;99.90;;;;;;4944136;28;20046;-61
2024/02/03 12:28:59;;;;;;;13.70;3.58;;;9.80;99.90;;;;;;4952105;28;20040;-60
2024/02/03 12:31:25;;;;;;;16.50;3.10;;;9.80;99.90;;;;;;5000380;28;20116;-62
2024/02/03 12:33:51;;;;;;;21.98;3.85;;;9.90;99.90;;;;;;4965763;28;20116;-62
2024/02/03 12:36:17;;;;;;;11.65;3.15;;;9.90;99.90;;;;;;4949241;28;20033;-61
2024/02/03 12:38:43;;;;;;;11.45;2.80;;;9.90;99.90;;;;;;4950212;28;20030;-62
2024/02/03 12:41:09;;;;;;;8.77;2.72;;;9.90;99.90;;;;;;4950697;28;20026;-63
2024/02/03 12:43:36;;;;;;;9.43;2.92;;;9.90;99.90;;;;;;4998651;28;20029;-64